createdAt,value
2019-05-13T00:01:36.864Z,7.22
2019-05-13T00:04:09.328Z,7.15
2019-05-13T00:06:53.199Z,7.12
2019-05-13T00:09:16.790Z,7.05
2019-05-13T00:11:49.554Z,6.95
2019-05-13T00:14:23.918Z,6.95
2019-05-13T00:16:56.964Z,6.98
2019-05-13T00:19:29.371Z,6.88
2019-05-13T00:22:03.793Z,6.93
2019-05-13T00:24:36.144Z,6.86
2019-05-13T00:27:08.449Z,6.73
2019-05-13T00:29:40.238Z,6.68
2019-05-13T00:32:13.434Z,6.63
2019-05-13T00:34:45.673Z,6.67
2019-05-13T00:37:18.212Z,6.61
2019-05-13T00:39:50.300Z,6.48
2019-05-13T00:42:24.557Z,6.37
2019-05-13T00:44:57.677Z,6.29
2019-05-13T00:47:30.170Z,6.42
2019-05-13T00:50:03.700Z,6.34
2019-05-13T00:52:36.601Z,6.40
2019-05-13T00:55:10.065Z,6.39
2019-05-13T00:57:43.662Z,6.25
2019-05-13T01:00:28.294Z,6.32
2019-05-13T01:03:03.764Z,6.32
2019-05-13T01:05:36.234Z,6.35
2019-05-13T01:08:08.303Z,6.29
2019-05-13T01:10:40.989Z,6.16
2019-05-13T01:13:13.657Z,6.21
2019-05-13T01:15:46.815Z,6.13
2019-05-13T01:18:18.935Z,6.07
2019-05-13T01:20:50.984Z,6.14
2019-05-13T01:23:24.020Z,6.14
2019-05-13T01:25:57.262Z,6.04
2019-05-13T01:28:29.645Z,6.18
2019-05-13T01:31:04.190Z,6.13
2019-05-13T01:33:37.415Z,6.04
2019-05-13T01:36:09.550Z,6.02
2019-05-13T01:38:43.574Z,5.94
2019-05-13T01:41:16.679Z,5.97
2019-05-13T01:43:48.731Z,5.95
2019-05-13T01:46:24.091Z,5.83
2019-05-13T01:48:56.376Z,5.75
2019-05-13T01:51:28.497Z,5.73
2019-05-13T01:54:03.965Z,5.70
2019-05-13T01:56:35.957Z,5.63
2019-05-13T01:59:08.510Z,5.60
2019-05-13T02:01:44.056Z,5.55
2019-05-13T02:04:16.180Z,5.50
2019-05-13T02:06:48.503Z,5.51
2019-05-13T02:09:24.324Z,5.53
2019-05-13T02:11:56.219Z,5.36
2019-05-13T02:14:28.941Z,5.20
2019-05-13T02:17:04.291Z,5.13
2019-05-13T02:19:40.772Z,5.03
2019-05-13T02:22:14.721Z,5.02
2019-05-13T02:24:47.532Z,5.01
2019-05-13T02:27:20.250Z,4.95
2019-05-13T02:29:54.000Z,4.86
2019-05-13T02:32:26.435Z,4.87
2019-05-13T02:35:02.230Z,4.79
2019-05-13T02:37:34.969Z,4.73
2019-05-13T02:40:07.358Z,4.62
2019-05-13T02:42:43.510Z,4.61
2019-05-13T02:45:15.007Z,4.53
2019-05-13T02:47:48.048Z,4.47
2019-05-13T02:50:22.614Z,4.46
2019-05-13T02:52:54.840Z,4.34
2019-05-13T02:55:27.850Z,4.23
2019-05-13T02:58:03.355Z,4.26
2019-05-13T03:00:35.328Z,4.27
2019-05-13T03:03:08.384Z,4.19
2019-05-13T03:05:42.869Z,4.07
2019-05-13T03:08:34.200Z,4.07
2019-05-13T03:10:52.993Z,4.06
2019-05-13T03:13:25.318Z,4.01
2019-05-13T03:16:15.641Z,3.96
2019-05-13T03:18:48.074Z,3.95
2019-05-13T03:21:23.157Z,3.97
2019-05-13T03:23:55.454Z,3.97
2019-05-13T03:26:28.497Z,4.00
2019-05-13T03:29:02.813Z,4.02
2019-05-13T03:31:36.355Z,4.05
2019-05-13T03:34:14.620Z,3.98
2019-05-13T03:36:45.860Z,3.99
2019-05-13T03:39:17.078Z,3.92
2019-05-13T03:41:53.821Z,3.84
2019-05-13T03:44:32.536Z,3.89
2019-05-13T03:47:05.838Z,3.89
2019-05-13T03:49:42.198Z,3.77
2019-05-13T03:52:13.765Z,3.75
2019-05-13T03:54:46.977Z,3.76
2019-05-13T03:57:18.018Z,3.72
2019-05-13T03:59:52.584Z,3.66
2019-05-13T04:02:26.043Z,3.70
2019-05-13T04:05:00.477Z,3.73
2019-05-13T04:07:32.740Z,3.71
2019-05-13T04:10:04.902Z,3.79
2019-05-13T04:12:37.276Z,3.77
2019-05-13T04:15:12.597Z,3.84
2019-05-13T04:17:45.221Z,3.85
2019-05-13T04:20:17.625Z,3.90
2019-05-13T04:22:52.962Z,3.94
2019-05-13T04:25:24.843Z,3.96
2019-05-13T04:27:57.131Z,4.06
2019-05-13T04:30:32.721Z,4.04
2019-05-13T04:33:04.695Z,4.06
2019-05-13T04:35:37.578Z,4.05
2019-05-13T04:38:13.384Z,4.13
2019-05-13T04:40:47.145Z,4.21
2019-05-13T04:43:23.242Z,4.30
2019-05-13T04:45:54.155Z,4.45
2019-05-13T04:48:26.625Z,4.52
2019-05-13T04:51:03.000Z,4.55
2019-05-13T04:53:34.401Z,4.59
2019-05-13T04:56:08.940Z,4.71
2019-05-13T04:58:42.795Z,4.71
2019-05-13T05:01:40.435Z,4.72
2019-05-13T05:04:23.963Z,4.91
2019-05-13T05:07:32.519Z,5.06
2019-05-13T05:11:03.280Z,5.14
2019-05-13T05:14:22.428Z,5.22
2019-05-13T05:17:43.030Z,5.39
2019-05-13T05:20:46.572Z,5.40
2019-05-13T05:24:33.162Z,5.55
2019-05-13T05:28:12.700Z,5.68
2019-05-13T05:31:33.072Z,5.70
2019-05-13T05:35:11.855Z,5.92
2019-05-13T05:38:43.397Z,5.99
2019-05-13T05:41:23.340Z,6.05
2019-05-13T05:43:58.888Z,6.16
2019-05-13T05:46:33.247Z,6.33
2019-05-13T05:49:12.742Z,6.52
2019-05-13T05:51:51.268Z,6.62
2019-05-13T05:54:28.657Z,6.79
2019-05-13T05:57:05.263Z,6.83
2019-05-13T05:59:42.684Z,6.97
2019-05-13T06:02:15.565Z,7.01
2019-05-13T06:04:52.021Z,7.12
2019-05-13T06:07:26.448Z,7.23
2019-05-13T06:09:59.187Z,7.40
2019-05-13T06:12:32.575Z,7.57
2019-05-13T06:15:36.273Z,7.61
2019-05-13T06:18:07.415Z,7.78
2019-05-13T06:20:41.666Z,7.91
2019-05-13T06:23:14.495Z,8.05
2019-05-13T06:25:46.642Z,8.15
2019-05-13T06:28:18.689Z,8.25
2019-05-13T06:30:52.204Z,8.39
2019-05-13T06:33:25.039Z,8.59
2019-05-13T06:35:57.365Z,8.80
2019-05-13T06:38:31.644Z,9.06
2019-05-13T06:41:10.855Z,9.22
2019-05-13T06:43:39.163Z,9.49
2019-05-13T06:46:12.419Z,9.81
2019-05-13T06:48:45.252Z,9.92
2019-05-13T06:51:17.789Z,10.04
2019-05-13T06:53:51.785Z,10.19
2019-05-13T06:56:25.634Z,10.40
2019-05-13T06:59:01.272Z,10.62
2019-05-13T07:01:32.931Z,10.90
2019-05-13T07:04:05.541Z,11.15
2019-05-13T07:06:37.950Z,11.38
2019-05-13T07:09:12.014Z,11.45
2019-05-13T07:11:44.492Z,11.71
2019-05-13T07:14:16.935Z,12.02
2019-05-13T07:16:49.267Z,12.12
2019-05-13T07:19:23.863Z,12.28
2019-05-13T07:21:56.986Z,12.45
2019-05-13T07:24:31.996Z,12.67
2019-05-13T07:27:04.769Z,12.79
2019-05-13T07:29:35.664Z,12.88
2019-05-13T07:32:07.791Z,13.00
2019-05-13T07:34:43.770Z,13.53
2019-05-13T07:37:16.295Z,13.71
2019-05-13T07:39:49.005Z,13.86
2019-05-13T07:42:22.289Z,13.78
2019-05-13T07:44:55.062Z,14.08
2019-05-13T07:47:27.448Z,14.52
2019-05-13T07:50:02.480Z,14.66
2019-05-13T07:52:34.608Z,14.64
2019-05-13T07:55:07.216Z,14.79
2019-05-13T07:57:42.082Z,14.56
2019-05-13T08:00:13.684Z,14.99
2019-05-13T08:02:46.361Z,15.26
2019-05-13T08:05:22.227Z,15.30
2019-05-13T08:07:53.772Z,15.31
2019-05-13T08:10:26.233Z,15.62
2019-05-13T08:12:59.492Z,15.66
2019-05-13T08:15:33.623Z,16.06
2019-05-13T08:18:06.267Z,16.16
2019-05-13T08:20:38.339Z,16.22
2019-05-13T08:23:13.608Z,16.59
2019-05-13T08:25:46.374Z,16.96
2019-05-13T08:28:19.197Z,16.86
2019-05-13T08:30:52.083Z,16.96
2019-05-13T08:33:23.114Z,17.07
2019-05-13T08:35:58.640Z,17.14
2019-05-13T08:38:31.879Z,17.30
2019-05-13T08:41:03.926Z,16.94
2019-05-13T08:43:36.929Z,17.20
2019-05-13T08:46:12.345Z,16.93
2019-05-13T08:48:45.824Z,17.16
2019-05-13T08:51:19.012Z,17.15
2019-05-13T08:53:51.840Z,17.30
2019-05-13T08:56:24.814Z,17.45
2019-05-13T08:58:57.651Z,18.13
2019-05-13T09:01:28.717Z,18.65
2019-05-13T09:04:02.443Z,18.68
2019-05-13T09:06:34.503Z,18.43
2019-05-13T09:09:11.506Z,18.49
2019-05-13T09:11:43.558Z,18.19
2019-05-13T09:14:16.078Z,18.55
2019-05-13T09:16:48.718Z,18.99
2019-05-13T09:19:21.550Z,19.29
2019-05-13T09:21:53.403Z,18.95
2019-05-13T09:24:34.119Z,19.64
2019-05-13T09:27:01.983Z,18.80
2019-05-13T09:29:34.709Z,19.32
2019-05-13T09:32:07.772Z,19.76
2019-05-13T09:34:42.191Z,19.90
2019-05-13T09:37:14.637Z,19.88
2019-05-13T09:39:46.938Z,19.66
2019-05-13T09:42:21.490Z,19.42
2019-05-13T09:44:53.705Z,18.86
2019-05-13T09:47:28.459Z,20.63
2019-05-13T09:50:00.491Z,20.87
2019-05-13T09:52:32.036Z,21.01
2019-05-13T09:55:03.753Z,20.56
2019-05-13T09:57:36.028Z,19.79
2019-05-13T10:00:11.987Z,20.63
2019-05-13T10:02:43.608Z,20.77
2019-05-13T10:05:15.495Z,20.96
2019-05-13T10:07:47.919Z,20.97
2019-05-13T10:10:22.371Z,20.14
2019-05-13T10:13:07.813Z,20.35
2019-05-13T10:15:28.888Z,20.94
2019-05-13T10:18:01.907Z,20.29
2019-05-13T10:20:53.843Z,21.19
2019-05-13T10:23:27.754Z,21.08
2019-05-13T10:26:03.750Z,21.37
2019-05-13T10:28:36.578Z,21.31
2019-05-13T10:31:11.773Z,21.34
2019-05-13T10:33:43.785Z,19.91
2019-05-13T10:36:15.141Z,19.58
2019-05-13T10:38:47.424Z,20.59
2019-05-13T10:41:21.617Z,20.66
2019-05-13T10:43:53.835Z,21.27
2019-05-13T10:46:25.947Z,21.15
2019-05-13T10:48:58.616Z,21.49
2019-05-13T10:51:32.700Z,22.42
2019-05-13T10:54:05.284Z,21.95
2019-05-13T10:56:38.166Z,22.10
2019-05-13T10:59:12.637Z,22.86
2019-05-13T11:01:44.639Z,22.39
2019-05-13T11:04:17.362Z,21.69
2019-05-13T11:06:52.446Z,22.06
2019-05-13T11:09:24.669Z,22.10
2019-05-13T11:11:57.674Z,21.99
2019-05-13T11:14:32.393Z,22.40
2019-05-13T11:17:05.879Z,22.55
2019-05-13T11:19:38.796Z,22.69
2019-05-13T11:22:12.469Z,22.57
2019-05-13T11:24:45.161Z,22.96
2019-05-13T11:27:17.600Z,22.13
2019-05-13T11:29:52.282Z,22.73
2019-05-13T11:32:23.965Z,23.15
2019-05-13T11:34:57.017Z,21.80
2019-05-13T11:37:29.155Z,22.93
2019-05-13T11:40:00.013Z,23.76
2019-05-13T11:42:34.314Z,23.67
2019-05-13T11:45:06.845Z,23.78
2019-05-13T11:47:40.927Z,23.05
2019-05-13T11:50:13.293Z,23.57
2019-05-13T11:52:45.463Z,23.87
2019-05-13T11:55:18.681Z,23.51
2019-05-13T11:57:53.067Z,22.09
2019-05-13T12:00:55.363Z,22.91
2019-05-13T12:03:27.908Z,23.52
2019-05-13T12:06:02.259Z,24.18
2019-05-13T12:08:35.436Z,24.06
2019-05-13T12:11:08.771Z,22.23
2019-05-13T12:13:42.633Z,21.82
2019-05-13T12:16:15.291Z,22.78
2019-05-13T12:18:48.383Z,23.86
2019-05-13T12:21:21.480Z,23.98
2019-05-13T12:23:53.579Z,24.74
2019-05-13T12:26:25.982Z,23.38
2019-05-13T12:28:56.777Z,23.34
2019-05-13T12:31:33.392Z,23.78
2019-05-13T12:34:03.785Z,23.53
2019-05-13T12:36:36.925Z,23.70
2019-05-13T12:39:13.806Z,23.81
2019-05-13T12:41:43.719Z,24.89
2019-05-13T12:44:15.833Z,24.64
2019-05-13T12:46:50.346Z,24.23
2019-05-13T12:49:22.069Z,24.85
2019-05-13T12:52:00.628Z,24.18
2019-05-13T12:54:28.525Z,23.78
2019-05-13T12:57:03.566Z,23.08
2019-05-13T12:59:33.450Z,23.88
2019-05-13T13:02:05.513Z,24.80
2019-05-13T13:04:37.571Z,24.83
2019-05-13T13:07:13.165Z,24.65
2019-05-13T13:09:44.224Z,24.62
2019-05-13T13:12:16.942Z,25.41
2019-05-13T13:14:54.112Z,23.47
2019-05-13T13:17:24.399Z,23.95
2019-05-13T13:20:06.106Z,24.77
2019-05-13T13:22:32.660Z,25.08
2019-05-13T13:25:05.228Z,25.03
2019-05-13T13:28:03.146Z,24.83
2019-05-13T13:30:12.069Z,24.78
2019-05-13T13:32:45.623Z,23.28
2019-05-13T13:35:21.809Z,24.70
2019-05-13T13:37:55.628Z,24.59
2019-05-13T13:40:30.593Z,24.47
2019-05-13T13:43:05.384Z,24.94
2019-05-13T13:46:05.211Z,24.67
2019-05-13T13:48:13.356Z,25.61
2019-05-13T13:50:45.235Z,25.38
2019-05-13T13:53:18.281Z,25.13
2019-05-13T13:55:55.504Z,25.60
2019-05-13T13:58:25.782Z,24.49
2019-05-13T14:01:07.217Z,23.18
2019-05-13T14:03:34.322Z,24.64
2019-05-13T14:06:07.344Z,24.95
2019-05-13T14:08:41.374Z,25.74
2019-05-13T14:11:13.162Z,25.79
2019-05-13T14:13:48.571Z,25.26
2019-05-13T14:16:29.626Z,24.27
2019-05-13T14:18:55.444Z,25.28
2019-05-13T14:21:28.056Z,24.03
2019-05-13T14:23:59.420Z,24.53
2019-05-13T14:26:33.098Z,24.18
2019-05-13T14:29:05.377Z,25.09
2019-05-13T14:31:37.739Z,23.56
2019-05-13T14:34:11.476Z,24.41
2019-05-13T14:36:42.980Z,24.95
2019-05-13T14:39:14.113Z,24.99
2019-05-13T14:41:46.868Z,25.58
2019-05-13T14:44:21.868Z,25.08
2019-05-13T14:46:54.220Z,24.98
2019-05-13T14:49:28.139Z,24.59
2019-05-13T14:52:02.392Z,24.50
2019-05-13T14:54:34.767Z,24.99
2019-05-13T14:57:05.618Z,24.97
2019-05-13T14:59:38.210Z,25.53
2019-05-13T15:02:11.945Z,24.30
2019-05-13T15:04:45.229Z,25.52
2019-05-13T15:07:17.471Z,25.64
2019-05-13T15:09:51.489Z,25.66
2019-05-13T15:12:23.525Z,24.66
2019-05-13T15:14:57.006Z,22.49
2019-05-13T15:17:32.386Z,21.82
2019-05-13T15:20:05.604Z,24.06
2019-05-13T15:22:38.221Z,22.86
2019-05-13T15:25:11.419Z,24.24
2019-05-13T15:27:44.414Z,24.87
2019-05-13T15:30:37.291Z,26.19
2019-05-13T15:33:08.696Z,26.01
2019-05-13T15:35:41.950Z,24.10
2019-05-13T15:38:14.351Z,24.67
2019-05-13T15:40:46.742Z,25.21
2019-05-13T15:43:19.261Z,24.55
2019-05-13T15:45:51.508Z,25.16
2019-05-13T15:48:23.361Z,25.38
2019-05-13T15:50:56.089Z,25.08
2019-05-13T15:53:28.877Z,25.00
2019-05-13T15:56:02.920Z,25.23
2019-05-13T15:58:40.018Z,23.46
2019-05-13T16:01:09.207Z,22.77
2019-05-13T16:03:42.299Z,24.63
2019-05-13T16:06:14.867Z,24.01
2019-05-13T16:08:47.350Z,23.66
2019-05-13T16:11:21.751Z,24.05
2019-05-13T16:13:52.983Z,23.48
2019-05-13T16:16:25.513Z,22.87
2019-05-13T16:18:57.837Z,23.95
2019-05-13T16:21:31.981Z,24.20
2019-05-13T16:24:05.195Z,23.12
2019-05-13T16:26:37.585Z,23.39
2019-05-13T16:29:08.383Z,23.97
2019-05-13T16:31:41.556Z,23.93
2019-05-13T16:34:14.363Z,23.64
2019-05-13T16:36:46.554Z,24.61
2019-05-13T16:39:17.319Z,24.50
2019-05-13T16:41:51.657Z,23.69
2019-05-13T16:44:24.196Z,21.84
2019-05-13T16:46:57.573Z,22.60
2019-05-13T16:49:31.825Z,22.89
2019-05-13T16:52:04.110Z,22.28
2019-05-13T16:54:36.279Z,21.75
2019-05-13T16:57:08.767Z,22.21
2019-05-13T16:59:42.363Z,21.32
2019-05-13T17:02:15.040Z,21.33
2019-05-13T17:04:48.492Z,20.77
2019-05-13T17:07:21.256Z,20.15
2019-05-13T17:09:53.758Z,20.11
2019-05-13T17:12:26.453Z,19.81
2019-05-13T17:15:01.285Z,19.42
2019-05-13T17:17:33.486Z,19.23
2019-05-13T17:20:05.974Z,19.03
2019-05-13T17:22:37.803Z,18.41
2019-05-13T17:25:12.722Z,17.87
2019-05-13T17:27:46.415Z,17.79
2019-05-13T17:30:21.838Z,17.79
2019-05-13T17:32:54.449Z,17.23
2019-05-13T17:35:26.779Z,16.87
2019-05-13T17:37:59.136Z,16.91
2019-05-13T17:40:31.983Z,16.73
2019-05-13T17:43:04.100Z,16.09
2019-05-13T17:45:36.723Z,15.96
2019-05-13T17:48:25.482Z,15.70
2019-05-13T17:50:43.565Z,15.78
2019-05-13T17:53:15.730Z,15.40
2019-05-13T17:55:48.470Z,15.29
2019-05-13T17:58:21.972Z,15.06
2019-05-13T18:00:53.581Z,15.09
2019-05-13T18:03:26.430Z,15.05
2019-05-13T18:05:57.284Z,14.67
2019-05-13T18:08:32.062Z,14.84
2019-05-13T18:11:04.680Z,14.16
2019-05-13T18:13:37.014Z,14.20
2019-05-13T18:16:09.079Z,14.58
2019-05-13T18:18:46.936Z,13.97
2019-05-13T18:21:15.764Z,14.09
2019-05-13T18:23:49.194Z,13.80
2019-05-13T18:26:21.694Z,13.81
2019-05-13T18:28:54.300Z,13.27
2019-05-13T18:31:26.483Z,13.43
2019-05-13T18:34:01.425Z,13.47
2019-05-13T18:36:34.451Z,13.35
2019-05-13T18:39:09.453Z,13.31
2019-05-13T18:41:43.142Z,12.85
2019-05-13T18:44:17.488Z,12.86
2019-05-13T18:46:52.294Z,12.81
2019-05-13T18:49:25.607Z,12.88
2019-05-13T18:51:58.115Z,12.39
2019-05-13T18:54:31.568Z,12.15
2019-05-13T18:57:04.338Z,12.32
2019-05-13T18:59:37.127Z,12.24
2019-05-13T19:02:12.043Z,12.03
2019-05-13T19:04:44.241Z,11.85
2019-05-13T19:17:02.955Z,11.43
2019-05-13T19:20:26.152Z,11.20
2019-05-13T19:23:01.113Z,10.94
2019-05-13T19:25:33.948Z,10.68
2019-05-13T19:28:06.765Z,10.64
2019-05-13T19:30:40.983Z,10.62
2019-05-13T19:33:14.470Z,10.46
2019-05-13T19:35:46.908Z,10.45
2019-05-13T19:38:21.186Z,10.18
2019-05-13T19:40:54.800Z,10.15
2019-05-13T19:43:27.864Z,10.05
2019-05-13T19:46:01.627Z,9.98
2019-05-13T19:48:35.465Z,9.82
2019-05-13T19:51:09.125Z,9.71
2019-05-13T19:53:44.540Z,9.61
2019-05-13T19:56:17.486Z,9.64
2019-05-13T19:58:50.380Z,9.70
2019-05-13T20:01:22.878Z,9.58
2019-05-13T20:03:59.264Z,9.56
2019-05-13T20:06:32.116Z,9.56
2019-05-13T20:09:06.279Z,9.37
2019-05-13T20:11:41.799Z,9.29
2019-05-13T20:14:13.708Z,9.21
2019-05-13T20:16:46.246Z,9.09
2019-05-13T20:19:18.581Z,8.96
2019-05-13T20:21:51.805Z,8.88
2019-05-13T20:24:24.332Z,8.92
2019-05-13T20:26:57.280Z,8.69
2019-05-13T20:29:30.241Z,8.65
2019-05-13T20:32:02.340Z,8.65
2019-05-13T20:34:36.000Z,8.60
2019-05-13T20:37:08.668Z,8.35
2019-05-13T20:39:42.467Z,8.29
2019-05-13T20:42:15.851Z,8.18
2019-05-13T20:44:48.232Z,8.28
2019-05-13T20:47:21.446Z,8.13
2019-05-13T20:50:01.502Z,8.08
2019-05-13T20:52:26.498Z,7.94
2019-05-13T20:55:24.823Z,7.72
2019-05-13T20:57:58.473Z,7.62
2019-05-13T21:00:31.511Z,7.53
2019-05-13T21:03:04.366Z,7.46
2019-05-13T21:05:37.213Z,7.31
2019-05-13T21:08:10.338Z,7.28
2019-05-13T21:10:42.254Z,7.27
2019-05-13T21:13:14.368Z,7.12
2019-05-13T21:15:47.409Z,6.96
2019-05-13T21:18:22.170Z,6.95
2019-05-13T21:20:54.950Z,6.84
2019-05-13T21:23:27.031Z,6.84
2019-05-13T21:26:01.641Z,6.73
2019-05-13T21:28:34.337Z,6.72
2019-05-13T21:31:06.990Z,6.63
2019-05-13T21:33:39.970Z,6.62
2019-05-13T21:36:13.197Z,6.53
2019-05-13T21:38:44.343Z,6.45
2019-05-13T21:41:16.902Z,6.37
2019-05-13T21:43:51.885Z,6.26
2019-05-13T21:46:23.839Z,6.44
2019-05-13T21:48:56.032Z,6.03
2019-05-13T21:51:28.222Z,6.06
2019-05-13T21:54:01.763Z,6.14
2019-05-13T21:56:34.832Z,6.03
2019-05-13T21:59:07.471Z,6.05
2019-05-13T22:01:42.239Z,6.05
2019-05-13T22:04:14.732Z,5.93
2019-05-13T22:06:47.659Z,5.83
2019-05-13T22:09:22.037Z,5.71
2019-05-13T22:11:54.859Z,5.69
2019-05-13T22:14:27.332Z,5.63
2019-05-13T22:17:01.500Z,5.78
2019-05-13T22:19:34.083Z,5.63
2019-05-13T22:22:06.799Z,5.45
2019-05-13T22:24:41.805Z,5.29
2019-05-13T22:27:15.781Z,5.14
2019-05-13T22:29:49.046Z,5.49
2019-05-13T22:32:21.984Z,5.44
2019-05-13T22:34:54.479Z,5.34
2019-05-13T22:37:26.596Z,5.32
2019-05-13T22:40:01.535Z,5.39
2019-05-13T22:42:33.968Z,5.18
2019-05-13T22:45:07.619Z,5.22
2019-05-13T22:47:41.759Z,5.17
2019-05-13T22:50:15.348Z,5.05
2019-05-13T22:52:46.794Z,5.04
2019-05-13T22:55:18.858Z,5.12
2019-05-13T22:57:51.323Z,5.08
2019-05-13T23:00:24.104Z,4.91
2019-05-13T23:02:56.136Z,4.74
2019-05-13T23:05:29.149Z,4.91
2019-05-13T23:08:02.222Z,4.94
2019-05-13T23:10:34.678Z,4.93
2019-05-13T23:13:07.448Z,4.97
2019-05-13T23:15:39.876Z,4.73
2019-05-13T23:18:11.999Z,4.71
2019-05-13T23:20:44.998Z,4.79
2019-05-13T23:23:17.072Z,4.73
2019-05-13T23:25:50.013Z,4.61
2019-05-13T23:28:22.611Z,4.70
2019-05-13T23:30:57.919Z,4.50
2019-05-13T23:33:31.380Z,4.47
2019-05-13T23:36:04.653Z,4.38
2019-05-13T23:38:38.317Z,4.45
2019-05-13T23:41:11.586Z,4.32
2019-05-13T23:43:44.512Z,4.27
2019-05-13T23:46:16.670Z,4.28
2019-05-13T23:48:51.844Z,4.11
2019-05-13T23:51:24.588Z,3.89
2019-05-13T23:53:57.231Z,3.84
2019-05-13T23:56:31.105Z,3.82
2019-05-13T23:59:04.528Z,3.88
